Time;durP1;ratioP1;P1;durP2;ratioP2;P2;SDS_P1;SDS_P2;PMS_P1;PMS_P2;Temp;Humidity;BMP_temperature;BMP_pressure;BME280_temperature;BME280_humidity;BME280_pressure;Samples;Min_cycle;Max_cycle;Signal;HPM_P1;HPM_P2
2021/12/10 00:00:31;;;;;;;3.17;1.83;;;;;;;8.26;54.58;94202.41;5010790;28;20498;-58
2021/12/10 00:02:59;;;;;;;4.40;1.95;;;;;;;8.19;55.94;94173.75;5010958;28;20030;-58
2021/12/10 00:05:32;;;;;;;4.35;1.80;;;;;;;7.83;55.18;94179.31;5011363;28;20033;-58
2021/12/10 00:07:59;;;;;;;5.25;1.92;;;;;;;7.84;55.72;94156.28;5014253;28;20022;-58
2021/12/10 00:10:30;;;;;;;5.53;1.80;;;;;;;7.82;53.83;94178.50;5006483;28;20151;-58
2021/12/10 00:12:55;;;;;;;5.68;2.35;;;;;;;7.98;54.83;94172.78;5009441;28;20061;-59
2021/12/10 00:15:25;;;;;;;7.47;2.55;;;;;;;7.95;54.21;94168.88;5011178;28;20057;-59
2021/12/10 00:17:52;;;;;;;7.57;1.70;;;;;;;7.50;53.65;94168.34;5011091;28;20029;-59
2021/12/10 00:20:19;;;;;;;4.80;1.95;;;;;;;7.53;55.53;94170.38;5010777;28;20049;-58
2021/12/10 00:22:55;;;;;;;7.97;2.03;;;;;;;7.27;54.81;94155.22;5010740;28;20026;-58
2021/12/10 00:25:35;;;;;;;8.23;1.60;;;;;;;7.11;53.59;94137.41;5011213;28;20026;-59
2021/12/10 00:28:13;;;;;;;6.78;1.67;;;;;;;7.43;55.19;94133.63;5010875;28;20369;-58
2021/12/10 00:30:55;;;;;;;7.40;1.85;;;;;;;7.48;54.13;94120.25;5010486;28;20030;-58
2021/12/10 00:33:24;;;;;;;8.02;1.40;;;;;;;7.77;56.04;94138.19;5010710;28;20593;-58
2021/12/10 00:35:51;;;;;;;5.63;1.55;;;;;;;7.79;54.68;94141.31;5009698;28;20026;-58
2021/12/10 00:38:16;;;;;;;4.72;1.80;;;;;;;7.93;56.37;94126.03;5013784;28;20029;-58
2021/12/10 00:40:42;;;;;;;6.63;1.88;;;;;;;7.96;55.79;94114.84;5010370;28;20087;-58
2021/12/10 00:43:08;;;;;;;3.75;1.75;;;;;;;7.98;55.96;94101.28;5010231;28;20093;-58
2021/12/10 00:45:34;;;;;;;4.88;1.60;;;;;;;8.06;55.17;94114.53;5009089;28;20026;-58
2021/12/10 00:48:00;;;;;;;5.82;1.63;;;;;;;8.08;54.25;94111.56;5010339;28;20466;-59
2021/12/10 00:50:30;;;;;;;5.75;1.73;;;;;;;8.14;56.06;94098.91;5010028;28;20161;-57
2021/12/10 00:52:56;;;;;;;7.35;1.85;;;;;;;8.16;55.71;94094.88;5011701;28;20079;-58
2021/12/10 00:55:24;;;;;;;3.97;1.50;;;;;;;8.05;56.12;94075.88;5008957;28;20026;-57
2021/12/10 00:57:50;;;;;;;3.25;1.70;;;;;;;8.03;56.55;94077.28;5010338;28;20025;-59
2021/12/10 01:00:32;;;;;;;4.85;1.80;;;;;;;8.15;56.79;94077.44;5009761;28;20034;-58
2021/12/10 01:02:57;;;;;;;4.77;1.60;;;;;;;8.10;56.94;94066.22;5008797;28;20391;-59
2021/12/10 01:05:23;;;;;;;3.15;1.55;;;;;;;7.95;56.62;94038.38;5010174;28;20105;-58
2021/12/10 01:07:49;;;;;;;7.03;1.65;;;;;;;8.23;56.37;94084.56;5010872;28;20483;-58
2021/12/10 01:10:24;;;;;;;5.53;1.58;;;;;;;8.24;56.99;94078.22;5009243;28;20057;-58
2021/12/10 01:12:52;;;;;;;4.95;2.08;;;;;;;8.16;57.27;94064.97;5008383;28;20026;-58
2021/12/10 01:23:57;;;;;;;5.82;1.85;;;;;;;7.98;56.88;94043.00;5013895;28;20679;-57
2021/12/10 01:29:22;;;;;;;4.63;1.42;;;;;;;7.95;56.86;94041.00;5010033;28;20048;-58
2021/12/10 01:31:50;;;;;;;5.20;1.63;;;;;;;7.90;57.40;94026.06;5009576;28;20080;-59
2021/12/10 01:34:16;;;;;;;4.32;1.70;;;;;;;7.77;56.88;94013.75;5008589;28;20029;-57
2021/12/10 01:36:41;;;;;;;7.60;2.10;;;;;;;7.63;57.05;93999.94;5009273;28;20095;-57
2021/12/10 01:39:13;;;;;;;7.75;2.28;;;;;;;7.54;57.16;94000.72;5019726;28;20124;-57
2021/12/10 01:41:42;;;;;;;5.10;1.83;;;;;;;7.55;57.50;94012.84;5008115;28;20099;-58
2021/12/10 01:44:16;;;;;;;6.57;1.98;;;;;;;7.41;57.44;94004.28;5009873;28;20026;-57
2021/12/10 01:46:44;;;;;;;3.08;1.52;;;;;;;7.26;57.57;94000.22;5008474;28;20372;-57
2021/12/10 01:49:12;;;;;;;6.63;2.20;;;;;;;7.06;57.18;93981.53;5008070;28;20025;-57
2021/12/10 01:51:41;;;;;;;4.85;1.90;;;;;;;6.95;57.38;93970.47;5008550;28;20430;-57
2021/12/10 01:54:13;;;;;;;5.40;1.85;;;;;;;6.93;57.66;93983.25;5013215;28;20489;-58
2021/12/10 01:56:40;;;;;;;5.10;1.80;;;;;;;6.63;55.76;93975.09;5013285;28;20037;-58
2021/12/10 01:59:09;;;;;;;6.28;2.15;;;;;;;6.45;57.47;93958.41;5010889;28;20042;-58
2021/12/10 02:01:41;;;;;;;4.05;2.00;;;;;;;6.19;57.87;93928.47;5013412;28;20107;-57
2021/12/10 02:04:08;;;;;;;;;;;;;;;6.35;57.65;93963.22;5014363;28;20033;-57
2021/12/10 02:06:35;;;;;;;4.32;2.20;;;;;;;6.17;57.62;93952.56;5012141;28;19920;-58
2021/12/10 02:09:02;;;;;;;5.60;2.13;;;;;;;6.01;57.49;93932.16;5015017;28;20107;-57
2021/12/10 02:11:27;;;;;;;5.57;1.92;;;;;;;5.78;56.06;93936.66;5016824;28;20026;-58
2021/12/10 02:13:52;;;;;;;7.65;2.67;;;;;;;5.90;58.20;93931.63;5013385;28;20032;-57
2021/12/10 02:16:18;;;;;;;7.82;2.60;;;;;;;5.91;58.17;93930.53;5012275;28;20026;-57
2021/12/10 02:18:44;;;;;;;5.90;2.60;;;;;;;5.82;58.41;93919.13;5012074;28;20044;-58
2021/12/10 02:21:09;;;;;;;6.53;3.20;;;;;;;5.84;58.05;93922.28;5013109;28;20034;-58
2021/12/10 02:23:42;;;;;;;8.32;2.50;;;;;;;5.67;58.63;93902.63;5016065;28;20623;-57
2021/12/10 02:26:12;;;;;;;6.25;2.60;;;;;;;5.51;58.36;93876.94;5013139;28;20121;-58
2021/12/10 02:28:38;;;;;;;5.40;2.47;;;;;;;5.63;58.11;93901.69;5011663;28;20036;-57
2021/12/10 02:31:07;;;;;;;7.32;2.67;;;;;;;5.50;58.45;93884.06;5012777;28;20540;-57
2021/12/10 02:33:33;;;;;;;5.85;2.97;;;;;;;5.55;58.35;93894.50;5012748;28;20399;-57
2021/12/10 02:35:58;;;;;;;5.88;2.63;;;;;;;5.49;58.75;93887.78;5011736;28;20116;-57
2021/12/10 02:38:24;;;;;;;4.18;2.38;;;;;;;5.11;58.64;93840.72;5012579;28;20100;-58
2021/12/10 02:40:53;;;;;;;3.92;2.50;;;;;;;5.42;58.57;93877.66;5016492;28;20092;-57
2021/12/10 02:43:21;;;;;;;6.07;2.83;;;;;;;5.39;58.58;93864.31;5012770;28;20029;-58
2021/12/10 02:45:51;;;;;;;4.38;2.83;;;;;;;5.35;58.49;93855.44;5011775;28;20481;-57
2021/12/10 02:48:17;;;;;;;8.27;3.38;;;;;;;5.30;58.68;93856.34;5011451;28;20117;-57
2021/12/10 02:50:44;;;;;;;8.18;3.35;;;;;;;5.22;58.45;93841.28;5011128;28;20109;-58
2021/12/10 02:53:13;;;;;;;8.77;3.72;;;;;;;5.18;58.31;93837.69;5015809;28;20028;-58
2021/12/10 02:55:40;;;;;;;8.15;3.38;;;;;;;5.10;58.87;93831.25;5016058;28;20041;-57
2021/12/10 02:58:11;;;;;;;7.40;3.63;;;;;;;4.88;58.51;93800.44;5012388;28;20021;-58
2021/12/10 03:00:47;;;;;;;5.30;3.30;;;;;;;5.10;58.44;93825.97;5012153;28;20484;-57
2021/12/10 03:03:13;;;;;;;5.45;3.67;;;;;;;4.94;58.53;93809.00;5012330;28;20476;-58
2021/12/10 03:05:39;;;;;;;8.30;3.45;;;;;;;4.99;58.52;93814.13;5012275;28;20034;-57
2021/12/10 03:08:05;;;;;;;6.53;3.60;;;;;;;4.97;58.80;93811.03;5011689;28;20520;-56
2021/12/10 03:10:31;;;;;;;6.82;3.60;;;;;;;5.29;60.77;93822.38;5014289;28;20044;-56
2021/12/10 03:12:58;;;;;;;6.47;3.17;;;;;;;5.31;61.00;93810.44;5011789;28;20172;-56
2021/12/10 03:15:26;;;;;;;9.13;3.47;;;;;;;5.31;60.15;93797.25;5010891;28;20114;-56
2021/12/10 03:17:52;;;;;;;8.55;3.92;;;;;;;5.40;60.26;93799.94;5010815;28;20033;-56
2021/12/10 03:20:21;;;;;;;8.43;4.43;;;;;;;5.34;59.97;93794.03;5011651;28;20041;-57
2021/12/10 03:22:46;;;;;;;6.25;4.10;;;;;;;5.36;59.79;93802.41;5011019;28;20411;-56
2021/12/10 03:25:15;;;;;;;6.70;3.15;;;;;;;5.13;59.77;93772.69;5010747;28;20036;-57
2021/12/10 03:27:42;;;;;;;9.57;3.45;;;;;;;5.22;59.83;93784.06;5017872;23;20050;-67
2021/12/10 03:30:11;;;;;;;13.02;3.58;;;;;;;5.22;59.66;93786.69;5009495;28;20037;-66
2021/12/10 03:32:38;;;;;;;5.28;3.30;;;;;;;5.16;59.92;93776.56;5031703;28;20036;-66
2021/12/10 03:35:13;;;;;;;4.47;3.22;;;;;;;5.18;59.40;93777.81;5030403;28;20037;-67
2021/12/10 03:37:39;;;;;;;5.70;3.00;;;;;;;5.07;59.59;93760.72;5025200;28;20092;-67
2021/12/10 03:40:08;;;;;;;4.30;2.78;;;;;;;5.04;59.76;93758.69;5013449;28;20026;-66
2021/12/10 03:42:33;;;;;;;4.28;3.13;;;;;;;4.89;59.55;93741.38;5011288;28;20025;-67
2021/12/10 03:44:59;;;;;;;5.93;2.85;;;;;;;5.06;59.17;93772.31;5011944;28;20044;-66
2021/12/10 03:47:25;;;;;;;3.05;2.20;;;;;;;5.01;58.98;93750.59;5011546;28;20083;-68
2021/12/10 03:49:50;;;;;;;7.55;2.72;;;;;;;4.98;59.43;93744.06;5011164;28;20026;-66
2021/12/10 03:52:16;;;;;;;4.13;1.85;;;;;;;5.05;59.22;93757.59;5011066;28;20025;-68
2021/12/10 03:54:42;;;;;;;2.95;1.95;;;;;;;4.97;58.87;93747.78;5011612;28;20113;-66
2021/12/10 03:57:09;;;;;;;2.17;1.77;;;;;;;4.92;58.71;93734.75;5011822;28;20645;-66
2021/12/10 03:59:37;;;;;;;3.08;2.00;;;;;;;4.87;59.21;93729.59;5011119;28;20541;-67
2021/12/10 04:02:06;;;;;;;3.58;2.05;;;;;;;4.92;58.68;93734.75;5010925;28;20033;-67
2021/12/10 04:04:43;;;;;;;2.63;1.73;;;;;;;4.85;58.71;93724.63;5011295;28;20022;-66
2021/12/10 04:07:12;;;;;;;5.55;2.35;;;;;;;4.84;59.15;93724.94;5010100;28;20118;-67
2021/12/10 04:09:38;;;;;;;3.67;1.70;;;;;;;4.76;58.60;93707.22;5014270;28;20072;-66
2021/12/10 04:12:04;;;;;;;4.07;1.92;;;;;;;4.68;58.83;93691.06;5010735;28;20057;-67
2021/12/10 04:14:31;;;;;;;3.80;1.65;;;;;;;4.70;58.43;93696.81;5011237;28;20041;-67
2021/12/10 04:16:57;;;;;;;4.07;1.80;;;;;;;4.61;58.62;93684.69;5011077;28;20042;-66
2021/12/10 04:19:28;;;;;;;2.65;1.70;;;;;;;4.54;58.39;93693.00;5009606;28;20057;-67
2021/12/10 04:21:57;;;;;;;4.50;1.80;;;;;;;4.56;58.52;93690.84;5009665;28;20065;-67
2021/12/10 04:24:25;;;;;;;3.40;1.85;;;;;;;4.59;58.49;93689.47;5017113;28;20487;-67
2021/12/10 04:26:51;;;;;;;2.45;1.58;;;;;;;4.56;58.44;93682.97;5015323;28;20072;-67
2021/12/10 04:29:20;;;;;;;2.75;1.52;;;;;;;4.63;58.48;93693.06;5010295;28;20038;-66
2021/12/10 04:31:50;;;;;;;2.63;1.30;;;;;;;4.29;57.37;93648.84;5010465;28;20041;-67
2021/12/10 04:34:15;;;;;;;2.25;1.17;;;;;;;4.52;58.07;93684.63;5009479;28;20030;-67
2021/12/10 04:36:41;;;;;;;2.47;1.45;;;;;;;4.61;58.15;93692.59;5009555;28;20229;-66
2021/12/10 04:39:07;;;;;;;4.60;1.20;;;;;;;4.55;57.55;93683.25;5013531;28;20033;-67
2021/12/10 04:41:33;;;;;;;4.90;1.40;;;;;;;4.42;57.96;93663.81;5008916;28;20105;-68
2021/12/10 04:43:59;;;;;;;2.80;1.20;;;;;;;4.23;55.68;93677.16;5009398;28;20128;-67
2021/12/10 04:46:24;;;;;;;3.00;1.35;;;;;;;4.41;57.84;93683.31;5009384;28;20491;-67
2021/12/10 04:48:54;;;;;;;2.38;1.30;;;;;;;4.40;57.50;93681.75;5010521;28;20025;-66
2021/12/10 04:51:26;;;;;;;3.03;1.20;;;;;;;4.30;56.88;93682.00;5010131;28;20034;-68
2021/12/10 04:53:53;;;;;;;2.53;1.30;;;;;;;4.35;57.76;93676.59;5012887;28;20033;-67
2021/12/10 04:56:19;;;;;;;2.13;1.30;;;;;;;4.34;57.72;93667.16;5010319;28;20100;-67
2021/12/10 04:58:45;;;;;;;2.97;1.08;;;;;;;4.28;57.38;93650.72;5010246;28;20030;-67
2021/12/10 05:01:11;;;;;;;1.92;1.10;;;;;;;4.32;57.44;93643.00;5010025;28;20033;-67
2021/12/10 05:03:37;;;;;;;1.90;1.23;;;;;;;4.20;56.83;93624.34;5010227;28;20030;-67
2021/12/10 05:06:04;;;;;;;5.20;1.70;;;;;;;3.79;56.19;93577.97;5010346;28;20064;-67
2021/12/10 05:08:35;;;;;;;1.67;1.38;;;;;;;3.85;57.00;93613.59;5009821;28;20141;-66
2021/12/10 05:11:02;;;;;;;2.23;1.10;;;;;;;3.93;57.16;93599.72;5011529;28;20030;-67
2021/12/10 05:13:28;;;;;;;3.03;1.40;;;;;;;3.99;56.45;93611.66;5009976;28;20034;-67
2021/12/10 05:15:58;;;;;;;3.35;1.50;;;;;;;4.10;57.14;93620.91;5010365;28;20048;-66
2021/12/10 05:18:30;;;;;;;5.50;2.45;;;;;;;4.05;57.32;93618.38;5010557;28;20116;-68
2021/12/10 05:20:57;;;;;;;3.08;2.03;;;;;;;3.69;56.96;93567.69;5010037;28;20030;-67
2021/12/10 05:23:22;;;;;;;2.95;1.35;;;;;;;3.92;56.94;93601.56;5009365;28;20025;-67
2021/12/10 05:25:48;;;;;;;1.88;1.42;;;;;;;3.96;57.02;93609.66;5014527;28;20056;-67
2021/12/10 05:28:14;;;;;;;2.88;1.40;;;;;;;3.83;56.51;93594.69;5009816;28;20175;-67
2021/12/10 05:30:40;;;;;;;1.85;1.35;;;;;;;3.90;56.62;93605.59;5009519;28;20026;-66
2021/12/10 05:33:07;;;;;;;2.85;1.50;;;;;;;3.76;56.13;93596.97;5009157;28;20030;-67
2021/12/10 05:35:33;;;;;;;3.42;1.40;;;;;;;3.82;56.60;93593.91;5008628;28;20528;-66
2021/12/10 05:37:59;;;;;;;2.95;1.50;;;;;;;3.87;56.30;93600.91;5009147;28;20034;-68
2021/12/10 05:40:27;;;;;;;3.33;1.50;;;;;;;3.84;56.58;93589.16;5012991;28;20030;-67
2021/12/10 05:42:52;;;;;;;3.42;1.35;;;;;;;3.72;56.42;93564.44;5013247;28;20026;-67
2021/12/10 05:45:20;;;;;;;6.55;2.25;;;;;;;3.75;56.81;93582.28;5009748;28;20046;-67
2021/12/10 05:47:46;;;;;;;4.03;1.70;;;;;;;3.77;56.77;93590.63;5008308;28;20472;-67
2021/12/10 05:50:14;;;;;;;4.22;1.70;;;;;;;3.55;56.66;93565.88;5010244;28;20033;-66
2021/12/10 05:52:40;;;;;;;3.28;1.60;;;;;;;3.71;56.34;93583.94;5008675;28;20033;-66
2021/12/10 05:55:06;;;;;;;4.70;1.48;;;;;;;3.72;56.25;93585.50;5012686;28;20021;-67
2021/12/10 05:57:32;;;;;;;2.83;1.90;;;;;;;3.60;56.42;93563.13;5008299;28;20042;-67
2021/12/10 05:59:57;;;;;;;5.93;1.88;;;;;;;3.57;55.70;93558.47;5008581;28;20559;-67
2021/12/10 06:02:23;;;;;;;3.72;1.83;;;;;;;3.33;55.24;93563.25;5010158;28;20021;-67
2021/12/10 06:04:48;;;;;;;1.73;1.25;;;;;;;3.46;55.68;93544.00;5008952;28;20025;-67
2021/12/10 06:07:14;;;;;;;4.30;1.50;;;;;;;3.51;55.99;93545.75;5010023;28;20400;-67
2021/12/10 06:09:39;;;;;;;4.75;1.92;;;;;;;3.51;55.92;93538.63;5013050;28;20547;-67
2021/12/10 06:12:05;;;;;;;3.70;1.85;;;;;;;3.53;55.75;93526.00;5009489;28;20026;-67
2021/12/10 06:14:31;;;;;;;5.82;1.98;;;;;;;3.61;55.78;93535.78;5008644;28;20022;-67
2021/12/10 06:16:57;;;;;;;2.47;1.60;;;;;;;3.60;55.90;93544.75;5008013;28;20041;-68
2021/12/10 06:19:23;;;;;;;2.25;1.60;;;;;;;3.41;56.06;93509.97;5008168;28;20503;-67
2021/12/10 06:21:49;;;;;;;7.20;2.50;;;;;;;3.43;56.23;93515.72;5008553;28;20160;-66
2021/12/10 06:24:15;;;;;;;3.10;1.90;;;;;;;3.52;55.66;93527.03;5008264;28;20117;-67
2021/12/10 06:26:40;;;;;;;6.72;1.85;;;;;;;3.45;55.70;93518.81;5008625;28;20575;-67
2021/12/10 06:29:06;;;;;;;3.90;2.33;;;;;;;3.34;55.59;93493.84;5009679;28;20137;-67
2021/12/10 06:31:32;;;;;;;2.83;1.65;;;;;;;3.43;55.84;93513.06;5009944;28;20479;-67
2021/12/10 06:33:59;;;;;;;2.40;2.20;;;;;;;3.45;56.04;93499.63;5008813;28;20033;-67
2021/12/10 06:36:25;;;;;;;4.60;1.77;;;;;;;3.45;56.12;93500.41;5009972;28;20045;-68
2021/12/10 06:38:52;;;;;;;5.15;1.92;;;;;;;3.49;55.63;93490.06;5010585;28;20053;-67
2021/12/10 06:41:18;;;;;;;4.35;2.10;;;;;;;3.22;55.66;93443.66;5018465;28;20022;-67
2021/12/10 06:43:44;;;;;;;3.25;1.90;;;;;;;3.52;55.60;93484.19;5008605;28;20032;-67
2021/12/10 06:46:10;;;;;;;4.13;2.63;;;;;;;3.56;55.62;93490.41;5011478;28;20618;-66
2021/12/10 06:48:36;;;;;;;3.70;2.22;;;;;;;3.61;55.50;93487.66;5012684;28;20022;-66
2021/12/10 06:51:09;;;;;;;3.88;2.03;;;;;;;3.62;55.25;93479.47;5012067;28;20383;-68
2021/12/10 06:53:35;;;;;;;3.88;2.47;;;;;;;3.64;55.37;93487.09;5010506;28;20053;-67
2021/12/10 06:56:01;;;;;;;3.95;2.40;;;;;;;3.48;55.09;93452.50;5014693;28;20049;-67
2021/12/10 06:58:28;;;;;;;2.83;2.08;;;;;;;3.58;54.76;93464.59;5011408;28;20535;-67
2021/12/10 07:00:58;;;;;;;5.22;2.35;;;;;;;3.63;55.11;93462.66;5012092;28;20024;-67
2021/12/10 07:03:27;;;;;;;4.32;2.55;;;;;;;3.63;55.16;93457.38;5010921;28;20034;-66
2021/12/10 07:05:55;;;;;;;3.38;2.40;;;;;;;3.68;54.84;93455.69;5011298;28;20515;-67
2021/12/10 07:08:22;;;;;;;4.82;3.17;;;;;;;3.63;55.05;93438.97;5011100;28;20105;-66
2021/12/10 07:10:48;;;;;;;4.95;3.00;;;;;;;3.73;54.84;93455.56;5014556;28;20041;-66
2021/12/10 07:13:15;;;;;;;4.50;3.38;;;;;;;3.77;54.96;93438.09;5010944;28;20018;-64
2021/12/10 07:15:43;;;;;;;4.75;3.22;;;;;;;3.83;54.69;93452.66;5010863;28;20030;-67
2021/12/10 07:18:11;;;;;;;7.60;3.80;;;;;;;3.79;54.94;93442.00;5010913;28;20041;-65
2021/12/10 07:20:41;;;;;;;3.80;3.17;;;;;;;3.92;54.92;93458.75;5011143;28;20026;-64
2021/12/10 07:23:06;;;;;;;5.72;3.45;;;;;;;3.61;54.42;93393.78;5010241;28;20037;-63
2021/12/10 07:25:32;;;;;;;6.68;3.72;;;;;;;3.77;54.86;93417.06;5015096;28;20033;-64
2021/12/10 07:27:57;;;;;;;7.03;4.22;;;;;;;4.08;54.76;93451.22;5010453;28;20038;-63
2021/12/10 07:30:26;;;;;;;4.93;4.28;;;;;;;4.15;54.93;93454.22;4991584;28;20089;-66
2021/12/10 07:32:52;;;;;;;5.15;3.97;;;;;;;3.97;54.50;93416.53;4992021;28;20030;-65
2021/12/10 07:35:17;;;;;;;7.80;4.63;;;;;;;4.25;54.81;93440.78;4992126;28;20290;-62
2021/12/10 07:37:43;;;;;;;7.40;4.78;;;;;;;4.26;54.69;93431.03;4991919;28;20665;-63
2021/12/10 07:40:14;;;;;;;8.57;4.60;;;;;;;4.24;54.35;93423.41;5011001;28;20033;-66
2021/12/10 07:42:40;;;;;;;7.97;5.05;;;;;;;4.10;54.41;93391.22;5010101;28;20030;-62
2021/12/10 07:45:08;;;;;;;9.60;5.20;;;;;;;4.29;54.11;93398.81;5011573;28;20033;-64
2021/12/10 07:47:36;;;;;;;7.03;5.13;;;;;;;4.26;53.61;93415.25;5011231;28;20389;-66
2021/12/10 07:50:11;;;;;;;6.05;5.43;;;;;;;4.31;54.10;93384.28;5011090;28;20025;-63
2021/12/10 07:52:37;;;;;;;7.38;5.80;;;;;;;4.53;53.38;93412.34;5010203;28;20022;-64
2021/12/10 07:55:09;;;;;;;7.53;6.13;;;;;;;4.43;54.28;93386.31;5008880;28;20026;-64
2021/12/10 07:57:34;;;;;;;;;;;;;;;4.69;54.30;93410.81;5013948;28;20119;-64
2021/12/10 08:00:03;;;;;;;11.27;6.57;;;;;;;4.50;54.12;93362.91;5010998;28;19987;-66
2021/12/10 08:02:28;;;;;;;7.95;6.53;;;;;;;4.88;53.61;93407.88;5010953;28;20383;-67
2021/12/10 08:04:53;;;;;;;9.43;6.85;;;;;;;4.87;53.85;93390.53;5011250;28;20038;-67
2021/12/10 08:07:19;;;;;;;8.80;5.60;;;;;;;4.60;52.58;93354.72;5010837;28;20414;-68
2021/12/10 08:09:44;;;;;;;9.38;5.88;;;;;;;5.05;54.06;93396.56;5012353;28;20037;-67
2021/12/10 08:12:11;;;;;;;6.53;5.82;;;;;;;5.07;53.15;93391.75;5012510;28;20034;-66
2021/12/10 08:14:37;;;;;;;7.20;5.15;;;;;;;5.07;52.91;93377.81;5009749;28;20029;-66
2021/12/10 08:17:03;;;;;;;7.55;5.50;;;;;;;4.91;52.29;93362.47;5010914;28;20451;-66
2021/12/10 08:19:29;;;;;;;9.73;5.78;;;;;;;5.23;52.59;93402.59;5010905;28;20026;-66
2021/12/10 08:21:57;;;;;;;7.03;4.95;;;;;;;5.20;53.09;93350.50;5010887;28;20101;-67
2021/12/10 08:24:22;;;;;;;6.45;4.80;;;;;;;5.27;52.53;93361.31;5010408;28;20026;-66
2021/12/10 08:26:48;;;;;;;5.50;4.53;;;;;;;5.18;49.41;93357.94;5014296;28;20026;-67
2021/12/10 08:29:16;;;;;;;6.00;4.82;;;;;;;5.34;51.60;93340.53;5010143;28;20068;-67
2021/12/10 08:31:41;;;;;;;5.00;4.10;;;;;;;5.44;51.40;93345.47;5008776;28;20037;-67
2021/12/10 08:34:08;;;;;;;6.60;4.20;;;;;;;5.68;51.13;93360.75;5009297;28;20033;-67
2021/12/10 08:36:34;;;;;;;4.95;3.75;;;;;;;5.56;50.83;93339.53;5009025;28;20026;-67
2021/12/10 08:39:03;;;;;;;4.05;3.53;;;;;;;5.77;50.91;93358.06;5009279;28;20025;-67
2021/12/10 08:41:34;;;;;;;8.32;4.13;;;;;;;5.82;50.48;93328.09;5012204;28;20037;-67
2021/12/10 08:44:02;;;;;;;3.72;3.15;;;;;;;5.72;49.79;93356.38;5009985;28;20528;-67
2021/12/10 08:46:28;;;;;;;4.13;3.72;;;;;;;5.99;50.91;93362.38;5009930;28;20101;-66
2021/12/10 08:48:55;;;;;;;3.50;2.97;;;;;;;6.13;49.93;93354.97;5008544;28;20507;-69
2021/12/10 08:51:29;;;;;;;4.13;3.22;;;;;;;6.25;50.61;93352.44;5009664;28;20018;-67
2021/12/10 08:53:56;;;;;;;4.38;3.72;;;;;;;6.12;49.16;93329.69;5009630;28;20476;-67
2021/12/10 08:56:22;;;;;;;3.88;3.28;;;;;;;6.22;49.82;93331.19;5013723;28;20093;-66
2021/12/10 08:58:49;;;;;;;4.85;3.33;;;;;;;6.27;50.54;93312.50;5013226;28;20045;-66
2021/12/10 09:01:19;;;;;;;4.07;3.10;;;;;;;6.61;49.69;93348.47;5009880;28;20664;-66
2021/12/10 09:03:48;;;;;;;3.58;3.28;;;;;;;6.46;50.19;93304.16;5008980;28;20479;-67
2021/12/10 09:06:17;;;;;;;3.80;3.10;;;;;;;6.68;50.58;93318.91;5010033;28;20041;-67
2021/12/10 09:08:43;;;;;;;3.72;3.15;;;;;;;6.93;49.67;93335.63;5007458;28;20037;-67
2021/12/10 09:11:11;;;;;;;4.75;3.10;;;;;;;6.91;48.96;93314.81;5013289;28;20112;-67
2021/12/10 09:13:38;;;;;;;3.00;2.72;;;;;;;7.06;48.26;93331.94;5012124;28;20029;-66
2021/12/10 09:16:07;;;;;;;3.45;2.78;;;;;;;6.97;49.71;93288.97;5009740;28;20041;-65
2021/12/10 09:18:38;;;;;;;5.25;3.33;;;;;;;6.80;47.92;93271.38;5008598;28;20029;-65
2021/12/10 09:21:06;;;;;;;5.20;3.55;;;;;;;7.21;48.39;93306.75;5009628;28;20038;-65
2021/12/10 09:23:32;;;;;;;3.10;2.80;;;;;;;6.86;47.61;93262.16;5008505;28;20022;-65
2021/12/10 09:26:01;;;;;;;3.13;2.83;;;;;;;7.11;47.80;93280.72;5013107;28;20038;-69
2021/12/10 09:28:27;;;;;;;3.78;3.13;;;;;;;7.20;45.61;93299.91;5005753;28;20041;-67
2021/12/10 09:31:00;;;;;;;3.88;3.00;;;;;;;7.11;48.22;93294.72;5022057;23;20042;-58
2021/12/10 09:33:27;;;;;;;6.85;2.97;;;;;;;7.10;48.49;93273.88;5001768;28;20067;-58
2021/12/10 09:35:54;;;;;;;4.45;3.03;;;;;;;7.23;47.47;93288.69;5009456;28;20021;-58
2021/12/10 09:38:22;;;;;;;3.80;2.83;;;;;;;7.10;48.02;93285.25;5009698;28;20420;-57
2021/12/10 09:40:52;;;;;;;3.22;2.92;;;;;;;7.14;47.69;93291.41;5010732;28;20396;-58
2021/12/10 09:43:18;;;;;;;3.45;2.97;;;;;;;7.03;48.37;93261.97;5008719;28;20037;-57
2021/12/10 09:45:44;;;;;;;4.65;3.20;;;;;;;7.40;48.99;93290.38;5009426;28;20033;-57
2021/12/10 09:48:14;;;;;;;3.90;3.30;;;;;;;7.17;48.28;93271.50;5009456;28;20022;-59
2021/12/10 09:50:46;;;;;;;3.80;3.40;;;;;;;7.47;48.91;93290.59;5007697;28;20025;-60
2021/12/10 09:53:12;;;;;;;3.75;3.38;;;;;;;7.47;48.27;93261.50;5009005;28;20049;-59
2021/12/10 09:55:39;;;;;;;3.30;3.00;;;;;;;7.51;48.75;93251.81;5011302;28;20080;-59
2021/12/10 09:58:05;;;;;;;3.90;2.90;;;;;;;7.72;47.43;93264.94;5011480;28;20022;-58
2021/12/10 10:00:36;;;;;;;4.15;2.90;;;;;;;7.51;45.87;93236.69;5008982;28;20549;-58
2021/12/10 10:03:06;;;;;;;3.45;3.10;;;;;;;7.80;47.78;93262.19;5008017;28;20037;-58
2021/12/10 10:05:33;;;;;;;2.78;2.55;;;;;;;8.10;47.37;93253.22;5009130;28;20040;-58
2021/12/10 10:08:03;;;;;;;3.80;2.85;;;;;;;8.42;46.11;93251.50;5008159;28;20033;-57
2021/12/10 10:10:30;;;;;;;3.72;2.50;;;;;;;8.68;46.75;93243.91;5011314;28;20072;-58
2021/12/10 10:12:57;;;;;;;3.55;2.97;;;;;;;8.74;44.41;93217.94;4999152;28;20101;-56
2021/12/10 10:15:29;;;;;;;3.13;2.58;;;;;;;8.79;42.89;93194.59;5009352;28;20038;-57
2021/12/10 10:17:55;;;;;;;;;;;;;;;8.92;43.47;93210.47;5009970;28;20037;-57
2021/12/10 10:20:22;;;;;;;2.60;2.30;;;;;;;9.20;42.00;93197.88;5011164;28;19936;-58
2021/12/10 10:22:48;;;;;;;2.90;2.50;;;;;;;9.16;42.94;93167.84;5012975;28;20092;-57
2021/12/10 10:25:17;;;;;;;3.22;2.92;;;;;;;9.09;41.35;93155.19;5012751;28;20026;-57
2021/12/10 10:27:43;;;;;;;3.63;2.72;;;;;;;9.34;42.23;93142.53;5016951;28;20088;-57
2021/12/10 10:30:25;;;;;;;3.28;2.97;;;;;;;9.50;42.95;93152.34;5012343;28;20030;-59
2021/12/10 10:32:53;;;;;;;4.35;3.53;;;;;;;9.59;41.86;93155.59;5012607;28;20029;-59
2021/12/10 10:35:26;;;;;;;3.67;2.80;;;;;;;9.22;43.99;93091.47;5013019;28;20026;-59
2021/12/10 10:37:53;;;;;;;4.65;3.20;;;;;;;9.59;41.36;93121.09;5013155;28;20018;-62
2021/12/10 10:40:22;;;;;;;3.08;2.80;;;;;;;9.60;42.86;93133.22;5010855;28;20037;-57
2021/12/10 10:42:50;;;;;;;3.25;2.95;;;;;;;9.06;44.16;93163.84;5016211;28;20104;-57
2021/12/10 10:45:20;;;;;;;2.60;2.40;;;;;;;9.27;43.20;93147.66;5012393;28;20030;-58
2021/12/10 10:47:47;;;;;;;4.38;3.10;;;;;;;9.58;45.01;93140.78;5012631;28;20034;-58
2021/12/10 10:50:20;;;;;;;3.15;2.85;;;;;;;9.83;44.99;93163.34;5012240;28;20026;-58
2021/12/10 10:53:00;;;;;;;3.63;2.67;;;;;;;10.16;45.84;93164.75;5012543;28;20089;-57
2021/12/10 10:55:32;;;;;;;3.38;3.00;;;;;;;10.34;44.36;93159.84;5011775;28;20033;-58
2021/12/10 10:58:14;;;;;;;4.93;2.92;;;;;;;10.52;43.86;93166.25;5015736;28;20026;-59
2021/12/10 11:01:04;;;;;;;3.47;3.17;;;;;;;10.72;44.05;93168.91;5012164;28;20024;-58
2021/12/10 11:03:40;;;;;;;3.60;2.83;;;;;;;10.80;43.27;93158.06;5011008;28;20399;-58
2021/12/10 11:06:16;;;;;;;4.03;3.00;;;;;;;10.77;41.01;93121.50;5010983;28;20075;-59
2021/12/10 11:08:45;;;;;;;2.95;2.53;;;;;;;11.07;43.19;93153.56;5012519;28;20100;-59
2021/12/10 11:11:21;;;;;;;4.82;3.00;;;;;;;11.18;43.64;93157.16;5015182;28;20024;-58
2021/12/10 11:14:03;;;;;;;2.97;2.67;;;;;;;11.26;43.33;93135.97;5012351;28;20602;-58
2021/12/10 11:16:31;;;;;;;3.63;2.63;;;;;;;11.42;43.43;93140.06;5010893;28;20033;-57
2021/12/10 11:19:03;;;;;;;4.10;2.97;;;;;;;11.44;42.24;93119.16;5011912;28;20523;-58
2021/12/10 11:21:55;;;;;;;4.88;2.90;;;;;;;11.63;41.91;93126.28;5011860;28;20029;-58
2021/12/10 11:24:38;;;;;;;4.22;3.00;;;;;;;11.60;41.68;93116.34;4988335;28;20117;-59
2021/12/10 11:27:08;;;;;;;3.95;3.15;;;;;;;11.71;41.09;93113.84;5015416;28;20056;-59
2021/12/10 11:29:59;;;;;;;4.88;2.85;;;;;;;11.65;42.82;93096.63;5011259;28;20048;-59
2021/12/10 11:32:36;;;;;;;3.70;3.22;;;;;;;11.70;41.24;93117.63;5011107;28;20075;-59
2021/12/10 11:35:18;;;;;;;3.53;2.88;;;;;;;11.70;41.49;93115.72;5010276;28;20133;-59
2021/12/10 11:38:04;;;;;;;3.47;3.17;;;;;;;11.75;41.66;93104.00;5011763;28;20034;-58
2021/12/10 11:40:42;;;;;;;3.03;2.78;;;;;;;11.87;42.46;93113.69;5010843;28;20022;-59
2021/12/10 11:43:19;;;;;;;3.83;3.00;;;;;;;11.90;42.09;93107.66;5011844;28;20045;-58
2021/12/10 11:48:39;;;;;;;2.90;2.60;;;;;;;11.96;40.76;93109.63;5011576;28;20088;-58
2021/12/10 11:51:50;;;;;;;4.38;2.90;;;;;;;11.97;42.66;93102.41;5010786;28;20107;-58
2021/12/10 11:54:20;;;;;;;4.65;2.80;;;;;;;11.97;42.79;93099.75;5011480;28;20491;-58
2021/12/10 11:56:50;;;;;;;2.78;2.50;;;;;;;12.12;43.62;93098.78;5013280;28;20128;-58
2021/12/10 11:59:35;;;;;;;3.10;2.80;;;;;;;12.14;43.59;93099.22;5010389;28;20037;-59
2021/12/10 12:02:05;;;;;;;3.75;3.05;;;;;;;11.96;42.92;93087.56;5009687;28;20055;-59